sensor_id;sensor_type;location;lat;lon;timestamp;temperature;humidity
74534;SHT31;63012;51.096;-115.366;2022-08-21T00:02:14;26.96;37.62
74534;SHT31;63012;51.096;-115.366;2022-08-21T00:04:43;26.98;37.62
74534;SHT31;63012;51.096;-115.366;2022-08-21T00:07:12;26.99;37.60
74534;SHT31;63012;51.096;-115.366;2022-08-21T00:09:39;27.01;37.55
74534;SHT31;63012;51.096;-115.366;2022-08-21T00:12:06;27.02;37.54
74534;SHT31;63012;51.096;-115.366;2022-08-21T00:14:33;27.04;37.50
74534;SHT31;63012;51.096;-115.366;2022-08-21T00:17:02;27.05;37.50
74534;SHT31;63012;51.096;-115.366;2022-08-21T00:19:31;27.07;37.49
74534;SHT31;63012;51.096;-115.366;2022-08-21T00:21:58;27.08;37.47
74534;SHT31;63012;51.096;-115.366;2022-08-21T00:24:25;27.08;37.43
74534;SHT31;63012;51.096;-115.366;2022-08-21T00:26:53;27.10;37.41
74534;SHT31;63012;51.096;-115.366;2022-08-21T00:29:24;27.11;37.40
74534;SHT31;63012;51.096;-115.366;2022-08-21T00:31:50;27.12;37.40
74534;SHT31;63012;51.096;-115.366;2022-08-21T00:34:18;27.13;37.40
74534;SHT31;63012;51.096;-115.366;2022-08-21T00:36:45;27.13;37.39
74534;SHT31;63012;51.096;-115.366;2022-08-21T00:39:12;27.15;37.36
74534;SHT31;63012;51.096;-115.366;2022-08-21T00:41:40;27.16;37.34
74534;SHT31;63012;51.096;-115.366;2022-08-21T00:44:09;27.17;37.31
74534;SHT31;63012;51.096;-115.366;2022-08-21T00:46:40;27.18;37.32
74534;SHT31;63012;51.096;-115.366;2022-08-21T00:49:09;27.20;37.30
74534;SHT31;63012;51.096;-115.366;2022-08-21T00:51:43;27.21;37.31
74534;SHT31;63012;51.096;-115.366;2022-08-21T00:54:26;27.23;37.30
74534;SHT31;63012;51.096;-115.366;2022-08-21T00:56:57;27.24;37.30
74534;SHT31;63012;51.096;-115.366;2022-08-21T00:59:32;27.23;37.24
74534;SHT31;63012;51.096;-115.366;2022-08-21T01:02:05;27.25;37.24
74534;SHT31;63012;51.096;-115.366;2022-08-21T01:04:34;27.26;37.24
74534;SHT31;63012;51.096;-115.366;2022-08-21T01:07:05;27.26;37.21
74534;SHT31;63012;51.096;-115.366;2022-08-21T01:09:33;27.28;37.22
74534;SHT31;63012;51.096;-115.366;2022-08-21T01:12:02;27.29;37.20
74534;SHT31;63012;51.096;-115.366;2022-08-21T01:14:38;27.31;37.21
74534;SHT31;63012;51.096;-115.366;2022-08-21T01:17:14;27.32;37.20
74534;SHT31;63012;51.096;-115.366;2022-08-21T01:19:43;27.32;37.22
74534;SHT31;63012;51.096;-115.366;2022-08-21T01:22:10;27.33;37.20
74534;SHT31;63012;51.096;-115.366;2022-08-21T01:24:37;27.33;37.21
74534;SHT31;63012;51.096;-115.366;2022-08-21T01:27:05;27.34;37.20
74534;SHT31;63012;51.096;-115.366;2022-08-21T01:32:10;27.36;37.21
74534;SHT31;63012;51.096;-115.366;2022-08-21T01:34:44;27.36;37.23
74534;SHT31;63012;51.096;-115.366;2022-08-21T01:37:17;27.38;37.20
74534;SHT31;63012;51.096;-115.366;2022-08-21T01:39:55;27.38;37.21
74534;SHT31;63012;51.096;-115.366;2022-08-21T01:42:26;27.38;37.20
74534;SHT31;63012;51.096;-115.366;2022-08-21T01:44:53;27.38;37.24
74534;SHT31;63012;51.096;-115.366;2022-08-21T01:47:20;27.40;37.25
74534;SHT31;63012;51.096;-115.366;2022-08-21T01:49:53;27.40;37.24
74534;SHT31;63012;51.096;-115.366;2022-08-21T01:52:20;27.40;37.23
74534;SHT31;63012;51.096;-115.366;2022-08-21T01:54:51;27.41;37.24
74534;SHT31;63012;51.096;-115.366;2022-08-21T01:57:18;27.42;37.23
74534;SHT31;63012;51.096;-115.366;2022-08-21T01:59:45;27.44;37.22
74534;SHT31;63012;51.096;-115.366;2022-08-21T02:02:12;27.44;37.24
74534;SHT31;63012;51.096;-115.366;2022-08-21T02:04:40;27.44;37.27
74534;SHT31;63012;51.096;-115.366;2022-08-21T02:07:09;27.44;37.28
74534;SHT31;63012;51.096;-115.366;2022-08-21T02:09:40;27.45;37.29
74534;SHT31;63012;51.096;-115.366;2022-08-21T02:12:10;27.45;37.30
74534;SHT31;63012;51.096;-115.366;2022-08-21T02:14:38;27.46;37.29
74534;SHT31;63012;51.096;-115.366;2022-08-21T02:17:07;27.46;37.30
74534;SHT31;63012;51.096;-115.366;2022-08-21T02:19:34;27.46;37.30
74534;SHT31;63012;51.096;-115.366;2022-08-21T02:22:10;27.47;37.30
74534;SHT31;63012;51.096;-115.366;2022-08-21T02:24:38;27.47;37.30
74534;SHT31;63012;51.096;-115.366;2022-08-21T02:27:05;27.47;37.31
74534;SHT31;63012;51.096;-115.366;2022-08-21T02:29:35;27.47;37.30
74534;SHT31;63012;51.096;-115.366;2022-08-21T02:32:03;27.48;37.32
74534;SHT31;63012;51.096;-115.366;2022-08-21T02:34:33;27.48;37.35
74534;SHT31;63012;51.096;-115.366;2022-08-21T02:37:00;27.48;37.31
74534;SHT31;63012;51.096;-115.366;2022-08-21T02:39:28;27.48;37.31
74534;SHT31;63012;51.096;-115.366;2022-08-21T02:41:55;27.48;37.30
74534;SHT31;63012;51.096;-115.366;2022-08-21T02:44:22;27.49;37.30
74534;SHT31;63012;51.096;-115.366;2022-08-21T02:46:49;27.48;37.31
74534;SHT31;63012;51.096;-115.366;2022-08-21T02:49:19;27.48;37.33
74534;SHT31;63012;51.096;-115.366;2022-08-21T02:51:46;27.48;37.34
74534;SHT31;63012;51.096;-115.366;2022-08-21T02:54:13;27.49;37.38
74534;SHT31;63012;51.096;-115.366;2022-08-21T02:56:40;27.48;37.39
74534;SHT31;63012;51.096;-115.366;2022-08-21T02:59:07;27.48;37.36
74534;SHT31;63012;51.096;-115.366;2022-08-21T03:01:35;27.47;37.40
74534;SHT31;63012;51.096;-115.366;2022-08-21T03:04:02;27.47;37.40
74534;SHT31;63012;51.096;-115.366;2022-08-21T03:06:30;27.48;37.39
74534;SHT31;63012;51.096;-115.366;2022-08-21T03:08:57;27.48;37.40
74534;SHT31;63012;51.096;-115.366;2022-08-21T03:11:24;27.48;37.41
74534;SHT31;63012;51.096;-115.366;2022-08-21T03:13:52;27.47;37.43
74534;SHT31;63012;51.096;-115.366;2022-08-21T03:16:22;27.48;37.46
74534;SHT31;63012;51.096;-115.366;2022-08-21T03:18:49;27.48;37.50
74534;SHT31;63012;51.096;-115.366;2022-08-21T03:21:17;27.47;37.50
74534;SHT31;63012;51.096;-115.366;2022-08-21T03:23:45;27.47;37.52
74534;SHT31;63012;51.096;-115.366;2022-08-21T03:26:12;27.47;37.57
74534;SHT31;63012;51.096;-115.366;2022-08-21T03:28:38;27.47;37.58
74534;SHT31;63012;51.096;-115.366;2022-08-21T03:31:06;27.48;37.60
74534;SHT31;63012;51.096;-115.366;2022-08-21T03:33:33;27.47;37.61
74534;SHT31;63012;51.096;-115.366;2022-08-21T03:36:02;27.47;37.70
74534;SHT31;63012;51.096;-115.366;2022-08-21T03:38:33;27.48;37.68
74534;SHT31;63012;51.096;-115.366;2022-08-21T03:41:02;27.47;37.73
74534;SHT31;63012;51.096;-115.366;2022-08-21T03:43:31;27.46;37.77
74534;SHT31;63012;51.096;-115.366;2022-08-21T03:46:02;27.46;37.81
74534;SHT31;63012;51.096;-115.366;2022-08-21T03:48:31;27.47;37.79
74534;SHT31;63012;51.096;-115.366;2022-08-21T03:50:59;27.47;37.82
74534;SHT31;63012;51.096;-115.366;2022-08-21T03:53:26;27.47;37.88
74534;SHT31;63012;51.096;-115.366;2022-08-21T03:55:54;27.47;37.91
74534;SHT31;63012;51.096;-115.366;2022-08-21T03:58:22;27.47;37.92
74534;SHT31;63012;51.096;-115.366;2022-08-21T04:00:53;27.47;37.96
74534;SHT31;63012;51.096;-115.366;2022-08-21T04:03:23;27.46;38.00
74534;SHT31;63012;51.096;-115.366;2022-08-21T04:05:52;27.46;38.00
74534;SHT31;63012;51.096;-115.366;2022-08-21T04:08:22;27.46;38.01
74534;SHT31;63012;51.096;-115.366;2022-08-21T04:10:49;27.45;38.06
74534;SHT31;63012;51.096;-115.366;2022-08-21T04:13:24;27.46;38.10
74534;SHT31;63012;51.096;-115.366;2022-08-21T04:15:53;27.45;38.11
74534;SHT31;63012;51.096;-115.366;2022-08-21T04:18:24;27.45;38.12
74534;SHT31;63012;51.096;-115.366;2022-08-21T04:20:57;27.45;38.17
74534;SHT31;63012;51.096;-115.366;2022-08-21T04:23:25;27.45;38.19
74534;SHT31;63012;51.096;-115.366;2022-08-21T04:25:54;27.44;38.20
74534;SHT31;63012;51.096;-115.366;2022-08-21T04:28:26;27.43;38.22
74534;SHT31;63012;51.096;-115.366;2022-08-21T04:30:53;27.44;38.25
74534;SHT31;63012;51.096;-115.366;2022-08-21T04:33:31;27.44;38.29
74534;SHT31;63012;51.096;-115.366;2022-08-21T04:36:04;27.44;38.30
74534;SHT31;63012;51.096;-115.366;2022-08-21T04:38:33;27.43;38.34
74534;SHT31;63012;51.096;-115.366;2022-08-21T04:40:59;27.43;38.34
74534;SHT31;63012;51.096;-115.366;2022-08-21T04:43:27;27.42;38.40
74534;SHT31;63012;51.096;-115.366;2022-08-21T04:45:54;27.42;38.41
74534;SHT31;63012;51.096;-115.366;2022-08-21T04:48:22;27.42;38.41
74534;SHT31;63012;51.096;-115.366;2022-08-21T04:53:44;27.41;38.49
74534;SHT31;63012;51.096;-115.366;2022-08-21T04:56:22;27.40;38.50
74534;SHT31;63012;51.096;-115.366;2022-08-21T04:58:54;27.39;38.50
74534;SHT31;63012;51.096;-115.366;2022-08-21T05:01:29;27.39;38.52
74534;SHT31;63012;51.096;-115.366;2022-08-21T05:04:03;27.39;38.57
74534;SHT31;63012;51.096;-115.366;2022-08-21T05:06:34;27.39;38.59
74534;SHT31;63012;51.096;-115.366;2022-08-21T05:09:06;27.38;38.60
74534;SHT31;63012;51.096;-115.366;2022-08-21T05:11:35;27.38;38.60
74534;SHT31;63012;51.096;-115.366;2022-08-21T05:14:12;27.37;38.63
74534;SHT31;63012;51.096;-115.366;2022-08-21T05:16:40;27.37;38.69
74534;SHT31;63012;51.096;-115.366;2022-08-21T05:19:10;27.36;38.65
74534;SHT31;63012;51.096;-115.366;2022-08-21T05:21:38;27.36;38.69
74534;SHT31;63012;51.096;-115.366;2022-08-21T05:24:13;27.37;38.70
74534;SHT31;63012;51.096;-115.366;2022-08-21T05:26:41;27.36;38.70
74534;SHT31;63012;51.096;-115.366;2022-08-21T05:29:08;27.36;38.70
74534;SHT31;63012;51.096;-115.366;2022-08-21T05:31:36;27.36;38.75
74534;SHT31;63012;51.096;-115.366;2022-08-21T05:34:04;27.35;38.78
74534;SHT31;63012;51.096;-115.366;2022-08-21T05:36:33;27.35;38.80
74534;SHT31;63012;51.096;-115.366;2022-08-21T05:39:01;27.35;38.80
74534;SHT31;63012;51.096;-115.366;2022-08-21T05:41:29;27.34;38.83
74534;SHT31;63012;51.096;-115.366;2022-08-21T05:43:56;27.33;38.80
74534;SHT31;63012;51.096;-115.366;2022-08-21T05:46:24;27.33;38.81
74534;SHT31;63012;51.096;-115.366;2022-08-21T05:48:51;27.33;38.88
74534;SHT31;63012;51.096;-115.366;2022-08-21T05:51:19;27.33;38.88
74534;SHT31;63012;51.096;-115.366;2022-08-21T05:53:46;27.32;38.86
74534;SHT31;63012;51.096;-115.366;2022-08-21T05:56:17;27.32;38.90
74534;SHT31;63012;51.096;-115.366;2022-08-21T05:58:47;27.32;38.90
74534;SHT31;63012;51.096;-115.366;2022-08-21T06:01:14;27.31;38.90
74534;SHT31;63012;51.096;-115.366;2022-08-21T06:03:42;27.30;38.91
74534;SHT31;63012;51.096;-115.366;2022-08-21T06:06:09;27.29;38.91
74534;SHT31;63012;51.096;-115.366;2022-08-21T06:08:37;27.30;38.93
74534;SHT31;63012;51.096;-115.366;2022-08-21T06:11:13;27.29;38.93
74534;SHT31;63012;51.096;-115.366;2022-08-21T06:13:40;27.28;38.98
74534;SHT31;63012;51.096;-115.366;2022-08-21T06:16:12;27.28;38.99
74534;SHT31;63012;51.096;-115.366;2022-08-21T06:18:42;27.28;38.99
74534;SHT31;63012;51.096;-115.366;2022-08-21T06:21:11;27.27;39.00
74534;SHT31;63012;51.096;-115.366;2022-08-21T06:23:39;27.26;39.00
74534;SHT31;63012;51.096;-115.366;2022-08-21T06:26:07;27.25;38.99
74534;SHT31;63012;51.096;-115.366;2022-08-21T06:28:36;27.24;39.01
74534;SHT31;63012;51.096;-115.366;2022-08-21T06:31:11;27.24;39.03
74534;SHT31;63012;51.096;-115.366;2022-08-21T06:33:48;27.23;39.08
74534;SHT31;63012;51.096;-115.366;2022-08-21T06:36:16;27.21;39.08
74534;SHT31;63012;51.096;-115.366;2022-08-21T06:38:46;27.21;39.09
74534;SHT31;63012;51.096;-115.366;2022-08-21T06:41:16;27.20;39.10
74534;SHT31;63012;51.096;-115.366;2022-08-21T06:43:42;27.19;39.10
74534;SHT31;63012;51.096;-115.366;2022-08-21T06:46:09;27.19;39.11
74534;SHT31;63012;51.096;-115.366;2022-08-21T06:48:36;27.19;39.11
74534;SHT31;63012;51.096;-115.366;2022-08-21T06:51:09;27.18;39.16
74534;SHT31;63012;51.096;-115.366;2022-08-21T06:53:36;27.16;39.16
74534;SHT31;63012;51.096;-115.366;2022-08-21T06:56:03;27.16;39.18
74534;SHT31;63012;51.096;-115.366;2022-08-21T06:58:30;27.15;39.20
74534;SHT31;63012;51.096;-115.366;2022-08-21T07:01:00;27.15;39.18
74534;SHT31;63012;51.096;-115.366;2022-08-21T07:03:31;27.14;39.20
74534;SHT31;63012;51.096;-115.366;2022-08-21T07:06:03;27.13;39.21
74534;SHT31;63012;51.096;-115.366;2022-08-21T07:08:33;27.12;39.22
74534;SHT31;63012;51.096;-115.366;2022-08-21T07:11:01;27.12;39.27
74534;SHT31;63012;51.096;-115.366;2022-08-21T07:13:48;27.09;39.26
74534;SHT31;63012;51.096;-115.366;2022-08-21T07:16:20;27.10;39.25
74534;SHT31;63012;51.096;-115.366;2022-08-21T07:18:48;27.09;39.26
74534;SHT31;63012;51.096;-115.366;2022-08-21T07:21:16;27.09;39.29
74534;SHT31;63012;51.096;-115.366;2022-08-21T07:23:49;27.08;39.29
74534;SHT31;63012;51.096;-115.366;2022-08-21T07:26:19;27.07;39.28
74534;SHT31;63012;51.096;-115.366;2022-08-21T07:28:51;27.07;39.30
74534;SHT31;63012;51.096;-115.366;2022-08-21T07:31:20;27.07;39.30
74534;SHT31;63012;51.096;-115.366;2022-08-21T07:33:52;27.06;39.30
74534;SHT31;63012;51.096;-115.366;2022-08-21T07:36:19;27.06;39.30
74534;SHT31;63012;51.096;-115.366;2022-08-21T07:38:49;27.06;39.31
74534;SHT31;63012;51.096;-115.366;2022-08-21T07:41:18;27.05;39.30
74534;SHT31;63012;51.096;-115.366;2022-08-21T07:43:50;27.04;39.31
74534;SHT31;63012;51.096;-115.366;2022-08-21T07:46:22;27.03;39.31
74534;SHT31;63012;51.096;-115.366;2022-08-21T07:48:50;27.03;39.31
74534;SHT31;63012;51.096;-115.366;2022-08-21T07:51:22;27.02;39.33
74534;SHT31;63012;51.096;-115.366;2022-08-21T07:53:56;27.01;39.32
74534;SHT31;63012;51.096;-115.366;2022-08-21T07:56:25;27.01;39.33
74534;SHT31;63012;51.096;-115.366;2022-08-21T07:58:53;27.00;39.34
74534;SHT31;63012;51.096;-115.366;2022-08-21T08:01:23;27.00;39.33
74534;SHT31;63012;51.096;-115.366;2022-08-21T08:03:54;27.00;39.36
74534;SHT31;63012;51.096;-115.366;2022-08-21T08:06:21;27.00;39.38
74534;SHT31;63012;51.096;-115.366;2022-08-21T08:08:49;26.99;39.40
74534;SHT31;63012;51.096;-115.366;2022-08-21T08:11:16;26.98;39.39
74534;SHT31;63012;51.096;-115.366;2022-08-21T08:13:47;26.97;39.39
74534;SHT31;63012;51.096;-115.366;2022-08-21T08:16:17;26.97;39.40
74534;SHT31;63012;51.096;-115.366;2022-08-21T08:18:45;26.97;39.40
74534;SHT31;63012;51.096;-115.366;2022-08-21T08:21:13;26.97;39.40
74534;SHT31;63012;51.096;-115.366;2022-08-21T08:23:40;26.96;39.41
74534;SHT31;63012;51.096;-115.366;2022-08-21T08:26:13;26.96;39.41
74534;SHT31;63012;51.096;-115.366;2022-08-21T08:28:43;26.95;39.40
74534;SHT31;63012;51.096;-115.366;2022-08-21T08:31:13;26.95;39.42
74534;SHT31;63012;51.096;-115.366;2022-08-21T08:33:42;26.95;39.44
74534;SHT31;63012;51.096;-115.366;2022-08-21T08:36:13;26.95;39.47
74534;SHT31;63012;51.096;-115.366;2022-08-21T08:38:42;26.94;39.47
74534;SHT31;63012;51.096;-115.366;2022-08-21T08:41:14;26.94;39.50
74534;SHT31;63012;51.096;-115.366;2022-08-21T08:43:51;26.93;39.49
74534;SHT31;63012;51.096;-115.366;2022-08-21T08:46:38;26.93;39.50
74534;SHT31;63012;51.096;-115.366;2022-08-21T08:49:19;26.91;39.53
74534;SHT31;63012;51.096;-115.366;2022-08-21T08:52:16;26.90;39.56
74534;SHT31;63012;51.096;-115.366;2022-08-21T08:58:23;26.88;39.61
74534;SHT31;63012;51.096;-115.366;2022-08-21T09:00:57;26.88;39.62
74534;SHT31;63012;51.096;-115.366;2022-08-21T09:03:29;26.88;39.63
74534;SHT31;63012;51.096;-115.366;2022-08-21T09:06:04;26.87;39.68
74534;SHT31;63012;51.096;-115.366;2022-08-21T09:09:07;26.87;39.65
74534;SHT31;63012;51.096;-115.366;2022-08-21T09:11:45;26.87;39.66
74534;SHT31;63012;51.096;-115.366;2022-08-21T09:15:01;26.85;39.68
74534;SHT31;63012;51.096;-115.366;2022-08-21T09:27:33;26.82;39.76
74534;SHT31;63012;51.096;-115.366;2022-08-21T09:30:03;26.80;39.74
74534;SHT31;63012;51.096;-115.366;2022-08-21T09:32:34;26.80;39.80
74534;SHT31;63012;51.096;-115.366;2022-08-21T09:35:10;26.78;39.77
74534;SHT31;63012;51.096;-115.366;2022-08-21T09:37:51;26.78;39.78
74534;SHT31;63012;51.096;-115.366;2022-08-21T09:40:41;26.77;39.80
74534;SHT31;63012;51.096;-115.366;2022-08-21T09:43:16;26.77;39.80
74534;SHT31;63012;51.096;-115.366;2022-08-21T09:46:00;26.76;39.80
74534;SHT31;63012;51.096;-115.366;2022-08-21T09:48:43;26.76;39.81
74534;SHT31;63012;51.096;-115.366;2022-08-21T09:51:15;26.75;39.80
74534;SHT31;63012;51.096;-115.366;2022-08-21T09:56:36;26.74;39.80
74534;SHT31;63012;51.096;-115.366;2022-08-21T09:59:44;26.72;39.82
74534;SHT31;63012;51.096;-115.366;2022-08-21T10:02:24;26.72;39.82
74534;SHT31;63012;51.096;-115.366;2022-08-21T10:04:54;26.71;39.83
74534;SHT31;63012;51.096;-115.366;2022-08-21T10:07:41;26.70;39.80
74534;SHT31;63012;51.096;-115.366;2022-08-21T10:10:14;26.68;39.83
74534;SHT31;63012;51.096;-115.366;2022-08-21T10:12:55;26.69;39.80
74534;SHT31;63012;51.096;-115.366;2022-08-21T10:19:00;26.67;39.85
74534;SHT31;63012;51.096;-115.366;2022-08-21T10:25:17;26.65;39.84
74534;SHT31;63012;51.096;-115.366;2022-08-21T10:28:30;26.63;39.86
74534;SHT31;63012;51.096;-115.366;2022-08-21T10:34:09;26.61;39.85
74534;SHT31;63012;51.096;-115.366;2022-08-21T10:43:10;26.57;39.86
74534;SHT31;63012;51.096;-115.366;2022-08-21T10:46:27;26.56;39.88
74534;SHT31;63012;51.096;-115.366;2022-08-21T11:00:52;26.49;39.90
74534;SHT31;63012;51.096;-115.366;2022-08-21T11:03:51;26.49;39.91
74534;SHT31;63012;51.096;-115.366;2022-08-21T11:06:30;26.48;39.90
74534;SHT31;63012;51.096;-115.366;2022-08-21T11:09:11;26.47;39.90
74534;SHT31;63012;51.096;-115.366;2022-08-21T11:11:54;26.46;39.87
74534;SHT31;63012;51.096;-115.366;2022-08-21T11:14:46;26.45;39.90
74534;SHT31;63012;51.096;-115.366;2022-08-21T11:17:30;26.44;39.89
74534;SHT31;63012;51.096;-115.366;2022-08-21T11:20:13;26.43;39.89
74534;SHT31;63012;51.096;-115.366;2022-08-21T11:23:05;26.42;39.89
74534;SHT31;63012;51.096;-115.366;2022-08-21T11:25:55;26.41;39.89
74534;SHT31;63012;51.096;-115.366;2022-08-21T11:28:44;26.41;39.87
74534;SHT31;63012;51.096;-115.366;2022-08-21T11:37:23;26.38;39.85
74534;SHT31;63012;51.096;-115.366;2022-08-21T11:46:00;26.33;39.82
74534;SHT31;63012;51.096;-115.366;2022-08-21T11:49:12;26.32;39.83
74534;SHT31;63012;51.096;-115.366;2022-08-21T11:52:18;26.30;39.81
74534;SHT31;63012;51.096;-115.366;2022-08-21T11:54:58;26.30;39.81
74534;SHT31;63012;51.096;-115.366;2022-08-21T11:57:51;26.28;39.80
74534;SHT31;63012;51.096;-115.366;2022-08-21T12:00:44;26.28;39.80
74534;SHT31;63012;51.096;-115.366;2022-08-21T12:03:26;26.27;39.80
74534;SHT31;63012;51.096;-115.366;2022-08-21T12:06:10;26.26;39.80
74534;SHT31;63012;51.096;-115.366;2022-08-21T12:08:44;26.25;39.80
74534;SHT31;63012;51.096;-115.366;2022-08-21T12:11:23;26.24;39.80
74534;SHT31;63012;51.096;-115.366;2022-08-21T12:14:15;26.24;39.76
74534;SHT31;63012;51.096;-115.366;2022-08-21T12:16:45;26.23;39.76
74534;SHT31;63012;51.096;-115.366;2022-08-21T12:19:28;26.23;39.75
74534;SHT31;63012;51.096;-115.366;2022-08-21T12:27:26;26.21;39.70
74534;SHT31;63012;51.096;-115.366;2022-08-21T12:35:37;26.17;39.70
74534;SHT31;63012;51.096;-115.366;2022-08-21T12:38:17;26.17;39.68
74534;SHT31;63012;51.096;-115.366;2022-08-21T12:41:00;26.16;39.65
74534;SHT31;63012;51.096;-115.366;2022-08-21T12:43:38;26.15;39.64
74534;SHT31;63012;51.096;-115.366;2022-08-21T12:46:18;26.13;39.66
74534;SHT31;63012;51.096;-115.366;2022-08-21T12:49:07;26.11;39.68
74534;SHT31;63012;51.096;-115.366;2022-08-21T12:51:56;26.11;39.65
74534;SHT31;63012;51.096;-115.366;2022-08-21T12:54:39;26.11;39.65
74534;SHT31;63012;51.096;-115.366;2022-08-21T12:57:17;26.09;39.62
74534;SHT31;63012;51.096;-115.366;2022-08-21T12:59:58;26.08;39.64
74534;SHT31;63012;51.096;-115.366;2022-08-21T13:02:38;26.08;39.64
74534;SHT31;63012;51.096;-115.366;2022-08-21T13:08:06;26.05;39.62
74534;SHT31;63012;51.096;-115.366;2022-08-21T13:10:39;26.05;39.62
74534;SHT31;63012;51.096;-115.366;2022-08-21T13:13:08;26.04;39.61
74534;SHT31;63012;51.096;-115.366;2022-08-21T13:15:47;26.03;39.60
74534;SHT31;63012;51.096;-115.366;2022-08-21T13:18:27;26.02;39.60
74534;SHT31;63012;51.096;-115.366;2022-08-21T13:21:11;26.02;39.60
74534;SHT31;63012;51.096;-115.366;2022-08-21T13:23:42;26.01;39.60
74534;SHT31;63012;51.096;-115.366;2022-08-21T13:26:16;26.00;39.60
74534;SHT31;63012;51.096;-115.366;2022-08-21T13:28:49;25.99;39.60
74534;SHT31;63012;51.096;-115.366;2022-08-21T13:31:36;25.98;39.60
74534;SHT31;63012;51.096;-115.366;2022-08-21T13:34:09;25.97;39.60
74534;SHT31;63012;51.096;-115.366;2022-08-21T13:36:41;25.96;39.60
74534;SHT31;63012;51.096;-115.366;2022-08-21T13:39:11;25.94;39.60
74534;SHT31;63012;51.096;-115.366;2022-08-21T13:41:45;25.93;39.60
74534;SHT31;63012;51.096;-115.366;2022-08-21T13:44:21;25.93;39.60
74534;SHT31;63012;51.096;-115.366;2022-08-21T13:47:11;25.91;39.59
74534;SHT31;63012;51.096;-115.366;2022-08-21T13:49:46;25.91;39.60
74534;SHT31;63012;51.096;-115.366;2022-08-21T13:52:18;25.90;39.60
74534;SHT31;63012;51.096;-115.366;2022-08-21T13:54:56;25.89;39.60
74534;SHT31;63012;51.096;-115.366;2022-08-21T13:57:33;25.89;39.60
74534;SHT31;63012;51.096;-115.366;2022-08-21T14:00:17;25.89;39.60
74534;SHT31;63012;51.096;-115.366;2022-08-21T14:02:55;25.87;39.60
74534;SHT31;63012;51.096;-115.366;2022-08-21T14:05:35;25.86;39.60
74534;SHT31;63012;51.096;-115.366;2022-08-21T14:08:12;25.84;39.60
74534;SHT31;63012;51.096;-115.366;2022-08-21T14:11:04;25.84;39.60
74534;SHT31;63012;51.096;-115.366;2022-08-21T14:16:18;25.84;39.57
74534;SHT31;63012;51.096;-115.366;2022-08-21T14:21:49;25.82;39.59
74534;SHT31;63012;51.096;-115.366;2022-08-21T14:27:01;25.80;39.60
74534;SHT31;63012;51.096;-115.366;2022-08-21T14:29:33;25.79;39.60
74534;SHT31;63012;51.096;-115.366;2022-08-21T14:32:20;25.79;39.60
74534;SHT31;63012;51.096;-115.366;2022-08-21T14:34:56;25.77;39.60
74534;SHT31;63012;51.096;-115.366;2022-08-21T14:37:24;25.77;39.60
74534;SHT31;63012;51.096;-115.366;2022-08-21T14:39:51;25.77;39.60
74534;SHT31;63012;51.096;-115.366;2022-08-21T14:42:18;25.76;39.60
74534;SHT31;63012;51.096;-115.366;2022-08-21T14:44:46;25.77;39.60
74534;SHT31;63012;51.096;-115.366;2022-08-21T14:47:13;25.76;39.60
74534;SHT31;63012;51.096;-115.366;2022-08-21T14:49:42;25.76;39.60
74534;SHT31;63012;51.096;-115.366;2022-08-21T14:52:09;25.77;39.60
74534;SHT31;63012;51.096;-115.366;2022-08-21T14:54:37;25.76;39.61
74534;SHT31;63012;51.096;-115.366;2022-08-21T14:57:08;25.74;39.60
74534;SHT31;63012;51.096;-115.366;2022-08-21T14:59:39;25.75;39.60
74534;SHT31;63012;51.096;-115.366;2022-08-21T15:02:07;25.75;39.60
74534;SHT31;63012;51.096;-115.366;2022-08-21T15:04:38;25.75;39.60
74534;SHT31;63012;51.096;-115.366;2022-08-21T15:07:05;25.75;39.60
74534;SHT31;63012;51.096;-115.366;2022-08-21T15:09:34;25.74;39.61
74534;SHT31;63012;51.096;-115.366;2022-08-21T15:12:02;25.74;39.61
74534;SHT31;63012;51.096;-115.366;2022-08-21T15:14:32;25.74;39.60
74534;SHT31;63012;51.096;-115.366;2022-08-21T15:17:04;25.74;39.60
74534;SHT31;63012;51.096;-115.366;2022-08-21T15:19:35;25.74;39.61
74534;SHT31;63012;51.096;-115.366;2022-08-21T15:22:03;25.74;39.62
74534;SHT31;63012;51.096;-115.366;2022-08-21T15:24:30;25.73;39.63
74534;SHT31;63012;51.096;-115.366;2022-08-21T15:26:58;25.74;39.67
74534;SHT31;63012;51.096;-115.366;2022-08-21T15:29:31;25.74;39.68
74534;SHT31;63012;51.096;-115.366;2022-08-21T15:32:00;25.73;39.64
74534;SHT31;63012;51.096;-115.366;2022-08-21T15:34:50;25.74;39.68
74534;SHT31;63012;51.096;-115.366;2022-08-21T15:37:18;25.73;39.69
74534;SHT31;63012;51.096;-115.366;2022-08-21T15:39:46;25.73;39.71
74534;SHT31;63012;51.096;-115.366;2022-08-21T15:42:14;25.73;39.70
74534;SHT31;63012;51.096;-115.366;2022-08-21T15:44:42;25.72;39.71
74534;SHT31;63012;51.096;-115.366;2022-08-21T15:47:15;25.73;39.70
74534;SHT31;63012;51.096;-115.366;2022-08-21T15:49:46;25.72;39.70
74534;SHT31;63012;51.096;-115.366;2022-08-21T15:52:15;25.72;39.70
74534;SHT31;63012;51.096;-115.366;2022-08-21T15:54:45;25.73;39.71
74534;SHT31;63012;51.096;-115.366;2022-08-21T15:57:19;25.73;39.71
74534;SHT31;63012;51.096;-115.366;2022-08-21T15:59:58;25.73;39.74
74534;SHT31;63012;51.096;-115.366;2022-08-21T16:02:36;25.73;39.75
74534;SHT31;63012;51.096;-115.366;2022-08-21T16:05:09;25.72;39.73
74534;SHT31;63012;51.096;-115.366;2022-08-21T16:07:38;25.72;39.79
74534;SHT31;63012;51.096;-115.366;2022-08-21T16:10:06;25.73;39.80
74534;SHT31;63012;51.096;-115.366;2022-08-21T16:12:34;25.72;39.76
74534;SHT31;63012;51.096;-115.366;2022-08-21T16:15:09;25.73;39.80
74534;SHT31;63012;51.096;-115.366;2022-08-21T16:17:41;25.74;39.80
74534;SHT31;63012;51.096;-115.366;2022-08-21T16:20:14;25.73;39.80
74534;SHT31;63012;51.096;-115.366;2022-08-21T16:22:47;25.74;39.80
74534;SHT31;63012;51.096;-115.366;2022-08-21T16:25:14;25.74;39.82
74534;SHT31;63012;51.096;-115.366;2022-08-21T16:27:43;25.75;39.80
74534;SHT31;63012;51.096;-115.366;2022-08-21T16:30:16;25.76;39.80
74534;SHT31;63012;51.096;-115.366;2022-08-21T16:32:46;25.76;39.81
74534;SHT31;63012;51.096;-115.366;2022-08-21T16:35:15;25.76;39.82
74534;SHT31;63012;51.096;-115.366;2022-08-21T16:37:45;25.77;39.85
74534;SHT31;63012;51.096;-115.366;2022-08-21T16:40:16;25.77;39.88
74534;SHT31;63012;51.096;-115.366;2022-08-21T16:42:43;25.78;39.88
74534;SHT31;63012;51.096;-115.366;2022-08-21T16:45:12;25.79;39.89
74534;SHT31;63012;51.096;-115.366;2022-08-21T16:47:43;25.80;39.86